createdAt,value
2023-09-11T00:04:57.141Z,15.51
2023-09-11T00:09:59.419Z,15.58
2023-09-11T00:15:01.651Z,15.65
2023-09-11T00:20:11.434Z,15.68
2023-09-11T00:25:13.535Z,15.68
2023-09-11T00:30:15.348Z,15.62
2023-09-11T00:35:17.551Z,15.52
2023-09-11T00:40:19.545Z,15.48
2023-09-11T00:45:21.407Z,15.49
2023-09-11T00:50:24.167Z,15.50
2023-09-11T00:55:27.859Z,15.56
2023-09-11T01:00:30.046Z,15.62
2023-09-11T01:05:33.382Z,15.65
2023-09-11T01:10:36.648Z,15.67
2023-09-11T01:16:03.771Z,15.71
2023-09-11T01:21:43.894Z,15.75
2023-09-11T01:27:22.253Z,15.76
2023-09-11T01:32:26.882Z,15.77
2023-09-11T01:37:31.239Z,15.75
2023-09-11T01:42:48.569Z,15.72
2023-09-11T01:47:52.838Z,15.67
2023-09-11T01:52:55.099Z,15.58
2023-09-11T01:57:57.042Z,15.46
2023-09-11T02:02:59.260Z,15.35
2023-09-11T02:08:01.247Z,15.26
2023-09-11T02:13:03.418Z,15.15
2023-09-11T02:18:05.485Z,14.99
2023-09-11T02:23:07.477Z,14.83
2023-09-11T02:28:09.542Z,14.72
2023-09-11T02:33:11.743Z,14.63
2023-09-11T02:38:14.416Z,14.57
2023-09-11T02:43:16.765Z,14.49
2023-09-11T02:48:18.849Z,14.43
2023-09-11T02:53:21.534Z,14.36
2023-09-11T02:58:24.011Z,14.29
2023-09-11T03:03:26.218Z,14.22
2023-09-11T03:08:29.808Z,14.13
2023-09-11T03:13:32.583Z,14.05
2023-09-11T03:18:34.768Z,13.98
2023-09-11T03:23:37.409Z,13.92
2023-09-11T03:28:39.974Z,13.89
2023-09-11T03:33:42.722Z,13.87
2023-09-11T03:38:45.608Z,13.82
2023-09-11T03:43:47.794Z,13.71
2023-09-11T03:48:50.271Z,13.62
2023-09-11T03:53:52.789Z,13.57
2023-09-11T03:58:56.961Z,13.55
2023-09-11T04:07:13.610Z,13.54
2023-09-11T04:12:19.325Z,13.53
2023-09-11T04:17:21.380Z,13.57
2023-09-11T04:22:23.525Z,13.60
2023-09-11T04:27:25.948Z,13.65
2023-09-11T04:32:28.112Z,13.68
2023-09-11T04:37:31.357Z,13.73
2023-09-11T04:42:34.830Z,13.89
2023-09-11T04:47:37.159Z,14.16
2023-09-11T04:52:40.632Z,14.47
2023-09-11T04:57:43.222Z,14.74
2023-09-11T05:02:47.673Z,15.05
2023-09-11T05:07:49.871Z,15.33
2023-09-11T05:12:52.778Z,15.60
2023-09-11T05:17:54.945Z,15.88
2023-09-11T05:22:56.906Z,16.16
2023-09-11T05:27:58.794Z,16.44
2023-09-11T05:33:01.148Z,16.75
2023-09-11T05:38:03.597Z,17.05
2023-09-11T05:43:05.579Z,17.35
2023-09-11T05:48:07.694Z,17.62
2023-09-11T05:53:09.591Z,17.90
2023-09-11T05:58:11.483Z,18.16
2023-09-11T06:03:13.433Z,18.42
2023-09-11T06:08:16.413Z,18.66
2023-09-11T06:13:18.522Z,18.90
2023-09-11T06:18:20.683Z,19.15
2023-09-11T06:23:22.616Z,19.38
2023-09-11T06:28:24.850Z,19.60
2023-09-11T06:33:28.965Z,19.80
2023-09-11T06:38:31.001Z,20.00
2023-09-11T06:43:33.191Z,20.21
2023-09-11T06:48:35.152Z,20.42
2023-09-11T06:53:37.187Z,20.76
2023-09-11T06:58:40.289Z,21.24
2023-09-11T07:03:43.217Z,21.71
2023-09-11T07:08:45.270Z,22.16
2023-09-11T07:13:47.308Z,22.60
2023-09-11T07:18:50.474Z,23.01
2023-09-11T07:23:52.724Z,23.37
2023-09-11T07:28:55.673Z,23.68
2023-09-11T07:33:57.613Z,23.90
2023-09-11T07:38:59.463Z,24.14
2023-09-11T07:44:01.381Z,24.32
2023-09-11T07:49:03.419Z,24.46
2023-09-11T07:54:05.562Z,24.69
2023-09-11T07:59:07.483Z,24.91
2023-09-11T08:04:09.503Z,25.07
2023-09-11T08:09:11.835Z,25.34
2023-09-11T08:14:13.752Z,25.60
2023-09-11T08:19:16.035Z,25.81
2023-09-11T08:24:17.823Z,26.06
2023-09-11T08:29:19.793Z,26.25
2023-09-11T08:34:21.775Z,26.48
2023-09-11T08:39:24.489Z,26.79
2023-09-11T08:44:27.262Z,27.15
2023-09-11T08:49:34.683Z,27.55
2023-09-11T08:54:42.202Z,27.86
2023-09-11T08:59:48.348Z,28.03
2023-09-11T09:04:52.201Z,28.26
2023-09-11T09:09:54.902Z,28.43
2023-09-11T09:14:57.954Z,28.77
2023-09-11T09:19:59.997Z,28.79
2023-09-11T09:25:02.151Z,29.07
2023-09-11T09:30:04.610Z,29.52
2023-09-11T09:35:07.619Z,29.73
2023-09-11T09:40:09.951Z,29.90
2023-09-11T09:45:29.802Z,30.14
2023-09-11T09:50:47.112Z,30.42
2023-09-11T09:55:49.038Z,30.66
2023-09-11T10:00:57.929Z,30.87
2023-09-11T10:05:59.795Z,31.07
2023-09-11T10:11:01.867Z,31.20
2023-09-11T10:16:04.603Z,31.26
2023-09-11T10:21:07.052Z,31.34
2023-09-11T10:26:10.725Z,31.33
2023-09-11T10:31:21.576Z,31.42
2023-09-11T10:36:34.491Z,31.81
2023-09-11T10:41:37.051Z,32.00
2023-09-11T10:46:40.467Z,32.08
2023-09-11T10:51:42.596Z,32.07
2023-09-11T10:56:44.750Z,32.28
2023-09-11T11:01:48.093Z,32.10
2023-09-11T11:06:52.052Z,31.90
2023-09-11T11:11:58.056Z,31.82
2023-09-11T11:17:09.819Z,32.03
2023-09-11T11:22:30.848Z,32.27
2023-09-11T11:27:32.686Z,32.58
2023-09-11T11:32:36.433Z,32.67
2023-09-11T11:37:45.376Z,32.96
2023-09-11T11:42:47.528Z,33.28
2023-09-11T11:47:51.199Z,33.23
2023-09-11T11:52:53.086Z,33.31
2023-09-11T11:57:55.693Z,33.64
2023-09-11T12:03:10.936Z,33.89
2023-09-11T12:08:13.981Z,33.95
2023-09-11T12:13:24.603Z,34.24
2023-09-11T12:18:32.621Z,34.69
2023-09-11T12:23:35.643Z,34.43
2023-09-11T12:28:38.047Z,34.35
2023-09-11T12:33:40.031Z,34.49
2023-09-11T12:38:46.847Z,33.61
2023-09-11T12:43:48.875Z,32.36
2023-09-11T12:48:52.926Z,32.49
2023-09-11T12:53:54.970Z,33.50
2023-09-11T12:58:57.580Z,33.79
2023-09-11T13:03:59.956Z,33.67
2023-09-11T13:09:04.132Z,33.68
2023-09-11T13:14:15.172Z,33.48
2023-09-11T13:19:18.664Z,32.97
2023-09-11T13:24:20.870Z,32.86
2023-09-11T13:29:22.798Z,33.79
2023-09-11T13:34:24.842Z,34.34
2023-09-11T13:39:26.790Z,34.01
2023-09-11T13:44:28.630Z,34.16
2023-09-11T13:49:30.580Z,35.06
2023-09-11T13:54:32.690Z,36.08
2023-09-11T13:59:34.539Z,36.59
2023-09-11T14:04:36.851Z,36.88
2023-09-11T14:09:38.853Z,37.12
2023-09-11T14:14:40.670Z,37.22
2023-09-11T14:19:42.568Z,37.06
2023-09-11T14:24:44.402Z,36.43
2023-09-11T14:29:46.252Z,35.78
2023-09-11T14:34:48.320Z,35.75
2023-09-11T14:39:50.514Z,36.11
2023-09-11T14:44:53.240Z,35.89
2023-09-11T14:49:58.179Z,35.99
2023-09-11T14:55:00.373Z,36.22
2023-09-11T15:00:04.159Z,36.35
2023-09-11T15:05:06.602Z,36.16
2023-09-11T15:10:08.646Z,36.01
2023-09-11T15:15:11.062Z,35.89
2023-09-11T15:20:13.223Z,35.45
2023-09-11T15:25:15.086Z,34.79
2023-09-11T15:30:16.904Z,34.31
2023-09-11T15:35:19.441Z,33.90
2023-09-11T15:40:21.307Z,33.65
2023-09-11T15:45:23.223Z,33.87
2023-09-11T15:50:25.054Z,34.04
2023-09-11T15:55:27.030Z,34.03
2023-09-11T16:00:29.771Z,33.84
2023-09-11T16:05:32.127Z,33.25
2023-09-11T16:10:34.210Z,32.85
2023-09-11T16:15:38.417Z,32.62
2023-09-11T16:20:43.198Z,32.42
2023-09-11T16:25:46.361Z,31.90
2023-09-11T16:30:48.284Z,31.63
2023-09-11T16:35:50.269Z,31.39
2023-09-11T16:40:52.385Z,31.06
2023-09-11T16:45:54.444Z,30.41
2023-09-11T16:50:56.295Z,29.53
2023-09-11T16:55:58.183Z,28.74
2023-09-11T17:01:07.026Z,27.96
2023-09-11T17:06:08.933Z,27.42
2023-09-11T17:11:10.745Z,26.96
2023-09-11T17:16:12.642Z,26.47
2023-09-11T17:21:15.197Z,25.97
2023-09-11T17:26:17.474Z,25.49
2023-09-11T17:31:19.355Z,25.06
2023-09-11T17:36:21.326Z,24.68
2023-09-11T17:41:23.258Z,24.32
2023-09-11T17:46:25.162Z,23.88
2023-09-11T17:51:27.090Z,23.53
2023-09-11T17:56:28.884Z,23.26
2023-09-11T18:01:30.789Z,23.01
2023-09-11T18:06:32.651Z,22.79
2023-09-11T18:11:34.659Z,22.55
2023-09-11T18:16:36.449Z,22.30
2023-09-11T18:21:40.724Z,22.03
2023-09-11T18:26:43.600Z,21.81
2023-09-11T18:31:46.046Z,21.63
2023-09-11T18:36:49.238Z,21.49
2023-09-11T18:41:55.309Z,21.34
2023-09-11T18:46:57.086Z,21.23
2023-09-11T18:51:59.104Z,21.10
2023-09-11T18:57:02.188Z,20.98
2023-09-11T19:02:04.539Z,20.90
2023-09-11T19:07:06.367Z,20.75
2023-09-11T19:12:08.326Z,20.56
2023-09-11T19:17:11.217Z,20.43
2023-09-11T19:22:14.440Z,20.30
2023-09-11T19:27:16.405Z,20.16
2023-09-11T19:32:18.329Z,20.01
2023-09-11T19:37:20.107Z,19.85
2023-09-11T19:42:22.387Z,19.69
2023-09-11T19:47:26.067Z,19.50
2023-09-11T19:52:29.358Z,19.34
2023-09-11T19:57:34.976Z,19.18
2023-09-11T20:02:37.526Z,19.01
2023-09-11T20:07:39.515Z,18.88
2023-09-11T20:12:42.618Z,18.82
2023-09-11T20:17:45.239Z,18.76
2023-09-11T20:22:47.301Z,18.67
2023-09-11T20:27:49.168Z,18.61
2023-09-11T20:32:51.124Z,18.55
2023-09-11T20:37:53.263Z,18.48
2023-09-11T20:42:55.213Z,18.39
2023-09-11T20:47:57.374Z,18.32
2023-09-11T20:52:59.409Z,18.25
2023-09-11T20:58:01.289Z,18.10
2023-09-11T21:03:03.715Z,18.00
2023-09-11T21:08:05.891Z,17.90
2023-09-11T21:13:08.120Z,17.82
2023-09-11T21:18:10.611Z,17.77
2023-09-11T21:23:12.623Z,17.72
2023-09-11T21:28:14.440Z,17.70
2023-09-11T21:33:16.482Z,17.71
2023-09-11T21:38:18.557Z,17.68
2023-09-11T21:43:20.762Z,17.61
2023-09-11T21:48:22.796Z,17.52
2023-09-11T21:53:25.028Z,17.45
2023-09-11T21:58:26.965Z,17.41
2023-09-11T22:03:29.014Z,17.37
2023-09-11T22:08:31.112Z,17.35
2023-09-11T22:13:33.116Z,17.34
2023-09-11T22:18:34.992Z,17.31
2023-09-11T22:23:36.965Z,17.28
2023-09-11T22:28:38.881Z,17.19
2023-09-11T22:33:41.268Z,17.14
2023-09-11T22:38:44.469Z,17.07
2023-09-11T22:43:46.275Z,16.99
2023-09-11T22:48:48.270Z,16.87
2023-09-11T22:53:50.276Z,16.80
2023-09-11T22:58:52.184Z,16.72
2023-09-11T23:03:54.178Z,16.61
2023-09-11T23:08:56.335Z,16.48
2023-09-11T23:13:59.630Z,16.37
2023-09-11T23:19:01.717Z,16.23
2023-09-11T23:24:14.626Z,16.11
2023-09-11T23:29:19.329Z,16.05
2023-09-11T23:34:21.407Z,15.95
2023-09-11T23:39:23.631Z,15.88
2023-09-11T23:44:25.871Z,15.83
2023-09-11T23:49:27.798Z,15.78
2023-09-11T23:54:29.663Z,15.76
2023-09-11T23:59:32.560Z,15.77
